Aviation Digital Data Service (ADDS)

Output produced by METARs form (0141 UTC 22 February 2019)
found at http://www.aviationweather.gov/metar/data/
 
METAR text: UKDD 220130Z 32005MPS CAVOK M05/M09 Q1015 R26/090070 NOSIG
Conditions at: UKDD (DNIPROPETROVSK , UA) observed 0130 UTC 22 February 2019
Temperature: -5.0°C (23°F)
Dewpoint: -9.0°C (16°F) [RH = 73%]
Pressure (altimeter): 29.97 inches Hg (1015.0 mb)
Winds: from the NW (320 degrees) at 12 MPH (10 knots; 5.1 m/s)
Visibility: 6 or more miles (10+ km)
Ceiling: ceiling and visibility are OK
Clouds: unknown
Weather: no significant weather observed at this time

METAR text: UKDD 220100Z 31004MPS CAVOK M05/M09 Q1015 R26/090070 NOSIG
Conditions at: UKDD (DNIPROPETROVSK , UA) observed 0100 UTC 22 February 2019
Temperature: -5.0°C (23°F)
Dewpoint: -9.0°C (16°F) [RH = 73%]
Pressure (altimeter): 29.97 inches Hg (1015.0 mb)
Winds: from the NW (310 degrees) at 9 MPH (8 knots; 4.1 m/s)
Visibility: 6 or more miles (10+ km)
Ceiling: ceiling and visibility are OK
Clouds: unknown
Weather: no significant weather observed at this time

METAR text: UKDD 220030Z 31003MPS CAVOK M05/M09 Q1015 R26/090070 NOSIG
Conditions at: UKDD (DNIPROPETROVSK , UA) observed 0030 UTC 22 February 2019
Temperature: -5.0°C (23°F)
Dewpoint: -9.0°C (16°F) [RH = 73%]
Pressure (altimeter): 29.97 inches Hg (1015.0 mb)
Winds: from the NW (310 degrees) at 7 MPH (6 knots; 3.1 m/s)
Visibility: 6 or more miles (10+ km)
Ceiling: ceiling and visibility are OK
Clouds: unknown
Weather: no significant weather observed at this time

METAR text: UKDD 220000Z 31003MPS CAVOK M05/M09 Q1015 R26/090070 NOSIG
Conditions at: UKDD (DNIPROPETROVSK , UA) observed 0000 UTC 22 February 2019
Temperature: -5.0°C (23°F)
Dewpoint: -9.0°C (16°F) [RH = 73%]
Pressure (altimeter): 29.97 inches Hg (1015.0 mb)
Winds: from the NW (310 degrees) at 7 MPH (6 knots; 3.1 m/s)
Visibility: 6 or more miles (10+ km)
Ceiling: ceiling and visibility are OK
Clouds: unknown
Weather: no significant weather observed at this time

METAR text: UKDD 212330Z 30004MPS CAVOK M05/M09 Q1015 R26/090070 NOSIG
Conditions at: UKDD (DNIPROPETROVSK , UA) observed 2330 UTC 21 February 2019
Temperature: -5.0°C (23°F)
Dewpoint: -9.0°C (16°F) [RH = 73%]
Pressure (altimeter): 29.97 inches Hg (1015.0 mb)
Winds: from the WNW (300 degrees) at 9 MPH (8 knots; 4.1 m/s)
Visibility: 6 or more miles (10+ km)
Ceiling: ceiling and visibility are OK
Clouds: unknown
Weather: no significant weather observed at this time

METAR text: UKDD 212300Z 31004MPS CAVOK M04/M09 Q1015 R26/090070 NOSIG
Conditions at: UKDD (DNIPROPETROVSK , UA) observed 2300 UTC 21 February 2019
Temperature: -4.0°C (25°F)
Dewpoint: -9.0°C (16°F) [RH = 68%]
Pressure (altimeter): 29.97 inches Hg (1015.0 mb)
Winds: from the NW (310 degrees) at 9 MPH (8 knots; 4.1 m/s)
Visibility: 6 or more miles (10+ km)
Ceiling: ceiling and visibility are OK
Clouds: unknown
Weather: no significant weather observed at this time

METAR text: UKDD 212230Z 33004MPS CAVOK M04/M08 Q1015 R26/090070 NOSIG
Conditions at: UKDD (DNIPROPETROVSK , UA) observed 2230 UTC 21 February 2019
Temperature: -4.0°C (25°F)
Dewpoint: -8.0°C (18°F) [RH = 74%]
Pressure (altimeter): 29.97 inches Hg (1015.0 mb)
Winds: from the NNW (330 degrees) at 9 MPH (8 knots; 4.1 m/s)
Visibility: 6 or more miles (10+ km)
Ceiling: ceiling and visibility are OK
Clouds: unknown
Weather: no significant weather observed at this time

METAR text: UKDD 212200Z 34004MPS 9999 BKN039 M03/M08 Q1015 R26/090070 NOSIG
Conditions at: UKDD (DNIPROPETROVSK , UA) observed 2200 UTC 21 February 2019
Temperature: -3.0°C (27°F)
Dewpoint: -8.0°C (18°F) [RH = 68%]
Pressure (altimeter): 29.97 inches Hg (1015.0 mb)
Winds: from the NNW (340 degrees) at 9 MPH (8 knots; 4.1 m/s)
Visibility: 6 or more miles (10+ km)
Ceiling: 3900 feet AGL
Clouds: broken clouds at 3900 feet AGL
Weather: no significant weather observed at this time

METAR text: UKDD 212130Z 33005MPS CAVOK M03/M08 Q1014 R26/090070 NOSIG
Conditions at: UKDD (DNIPROPETROVSK , UA) observed 2130 UTC 21 February 2019
Temperature: -3.0°C (27°F)
Dewpoint: -8.0°C (18°F) [RH = 68%]
Pressure (altimeter): 29.94 inches Hg (1014.0 mb)
Winds: from the NNW (330 degrees) at 12 MPH (10 knots; 5.1 m/s)
Visibility: 6 or more miles (10+ km)
Ceiling: ceiling and visibility are OK
Clouds: unknown
Weather: no significant weather observed at this time

METAR text: UKDD 212100Z 31004MPS CAVOK M03/M08 Q1014 R26/090070 NOSIG
Conditions at: UKDD (DNIPROPETROVSK , UA) observed 2100 UTC 21 February 2019
Temperature: -3.0°C (27°F)
Dewpoint: -8.0°C (18°F) [RH = 68%]
Pressure (altimeter): 29.94 inches Hg (1014.0 mb)
Winds: from the NW (310 degrees) at 9 MPH (8 knots; 4.1 m/s)
Visibility: 6 or more miles (10+ km)
Ceiling: ceiling and visibility are OK
Clouds: unknown
Weather: no significant weather observed at this time

METAR text: UKDD 212030Z 30005MPS CAVOK M03/M08 Q1014 R26/090070 NOSIG
Conditions at: UKDD (DNIPROPETROVSK , UA) observed 2030 UTC 21 February 2019
Temperature: -3.0°C (27°F)
Dewpoint: -8.0°C (18°F) [RH = 68%]
Pressure (altimeter): 29.94 inches Hg (1014.0 mb)
Winds: from the WNW (300 degrees) at 12 MPH (10 knots; 5.1 m/s)
Visibility: 6 or more miles (10+ km)
Ceiling: ceiling and visibility are OK
Clouds: unknown
Weather: no significant weather observed at this time

METAR text: UKDD 212000Z 31005MPS CAVOK M03/M07 Q1014 R26/090070 NOSIG
Conditions at: UKDD (DNIPROPETROVSK , UA) observed 2000 UTC 21 February 2019
Temperature: -3.0°C (27°F)
Dewpoint: -7.0°C (19°F) [RH = 74%]
Pressure (altimeter): 29.94 inches Hg (1014.0 mb)
Winds: from the NW (310 degrees) at 12 MPH (10 knots; 5.1 m/s)
Visibility: 6 or more miles (10+ km)
Ceiling: ceiling and visibility are OK
Clouds: unknown
Weather: no significant weather observed at this time

METAR text: UKDD 211930Z 30004MPS 260V330 9999 BKN033 M02/M07 Q1014 R26/090070 NOSIG
Conditions at: UKDD (DNIPROPETROVSK , UA) observed 1930 UTC 21 February 2019
Temperature: -2.0°C (28°F)
Dewpoint: -7.0°C (19°F) [RH = 69%]
Pressure (altimeter): 29.94 inches Hg (1014.0 mb)
Winds: from the WNW (300 degrees) at 9 MPH (8 knots; 4.1 m/s)
Visibility: 6 or more miles (10+ km)
Ceiling: 3300 feet AGL
Clouds: broken clouds at 3300 feet AGL
Weather: no significant weather observed at this time

METAR text: UKDD 211900Z 31004MPS 280V360 CAVOK M01/M07 Q1014 R26/090070 NOSIG
Conditions at: UKDD (DNIPROPETROVSK , UA) observed 1900 UTC 21 February 2019
Temperature: -1.0°C (30°F)
Dewpoint: -7.0°C (19°F) [RH = 64%]
Pressure (altimeter): 29.94 inches Hg (1014.0 mb)
Winds: from the NW (310 degrees) at 9 MPH (8 knots; 4.1 m/s)
Visibility: 6 or more miles (10+ km)
Ceiling: ceiling and visibility are OK
Clouds: unknown
Weather: no significant weather observed at this time

METAR text: UKDD 211830Z 32006MPS 9999 BKN037 M01/M07 Q1014 R26/090070 NOSIG
Conditions at: UKDD (DNIPROPETROVSK , UA) observed 1830 UTC 21 February 2019
Temperature: -1.0°C (30°F)
Dewpoint: -7.0°C (19°F) [RH = 64%]
Pressure (altimeter): 29.94 inches Hg (1014.0 mb)
Winds: from the NW (320 degrees) at 14 MPH (12 knots; 6.2 m/s)
Visibility: 6 or more miles (10+ km)
Ceiling: 3700 feet AGL
Clouds: broken clouds at 3700 feet AGL
Weather: no significant weather observed at this time

METAR text: UKDD 211800Z 31005MPS 9999 BKN048 M01/M07 Q1014 R26/090070 NOSIG
Conditions at: UKDD (DNIPROPETROVSK , UA) observed 1800 UTC 21 February 2019
Temperature: -1.0°C (30°F)
Dewpoint: -7.0°C (19°F) [RH = 64%]
Pressure (altimeter): 29.94 inches Hg (1014.0 mb)
Winds: from the NW (310 degrees) at 12 MPH (10 knots; 5.1 m/s)
Visibility: 6 or more miles (10+ km)
Ceiling: 4800 feet AGL
Clouds: broken clouds at 4800 feet AGL
Weather: no significant weather observed at this time

METAR text: UKDD 211730Z 31005MPS CAVOK M01/M08 Q1013 R26/090070 NOSIG
Conditions at: UKDD (DNIPROPETROVSK , UA) observed 1730 UTC 21 February 2019
Temperature: -1.0°C (30°F)
Dewpoint: -8.0°C (18°F) [RH = 59%]
Pressure (altimeter): 29.91 inches Hg (1013.0 mb)
Winds: from the NW (310 degrees) at 12 MPH (10 knots; 5.1 m/s)
Visibility: 6 or more miles (10+ km)
Ceiling: ceiling and visibility are OK
Clouds: unknown
Weather: no significant weather observed at this time

METAR text: UKDD 211700Z 31005MPS CAVOK M01/M08 Q1013 R26/090070 TEMPO 32011G16MPS
Conditions at: UKDD (DNIPROPETROVSK , UA) observed 1700 UTC 21 February 2019
Temperature: -1.0°C (30°F)
Dewpoint: -8.0°C (18°F) [RH = 59%]
Pressure (altimeter): 29.91 inches Hg (1013.0 mb)
Winds: from the NW (310 degrees) at 12 MPH (10 knots; 5.1 m/s)
Visibility: 6 or more miles (10+ km)
Ceiling: ceiling and visibility are OK
Clouds: unknown
Weather: no significant weather observed at this time

METAR text: UKDD 211630Z 31006MPS CAVOK M01/M08 Q1014 R26/090070 TEMPO 32011G16MPS
Conditions at: UKDD (DNIPROPETROVSK , UA) observed 1630 UTC 21 February 2019
Temperature: -1.0°C (30°F)
Dewpoint: -8.0°C (18°F) [RH = 59%]
Pressure (altimeter): 29.94 inches Hg (1014.0 mb)
Winds: from the NW (310 degrees) at 14 MPH (12 knots; 6.2 m/s)
Visibility: 6 or more miles (10+ km)
Ceiling: ceiling and visibility are OK
Clouds: unknown
Weather: no significant weather observed at this time

METAR text: UKDD 211600Z 32006MPS 9999 BKN048 M00/M08 Q1013 R26/090070 TEMPO 32011G16MPS
Conditions at: UKDD (DNIPROPETROVSK , UA) observed 1600 UTC 21 February 2019
Temperature: 0.0°C (32°F)
Dewpoint: -8.0°C (18°F) [RH = 55%]
Pressure (altimeter): 29.91 inches Hg (1013.0 mb)
Winds: from the NW (320 degrees) at 14 MPH (12 knots; 6.2 m/s)
Visibility: 6 or more miles (10+ km)
Ceiling: 4800 feet AGL
Clouds: broken clouds at 4800 feet AGL
Weather: no significant weather observed at this time

METAR text: UKDD 211530Z 31010MPS 9999 BKN043 00/M08 Q1013 R26/090070 TEMPO 32011G16MPS
Conditions at: UKDD (DNIPROPETROVSK , UA) observed 1530 UTC 21 February 2019
Temperature: 0.0°C (32°F)
Dewpoint: -8.0°C (18°F) [RH = 55%]
Pressure (altimeter): 29.91 inches Hg (1013.0 mb)
Winds: from the NW (310 degrees) at 22 MPH (19 knots; 9.8 m/s)
Visibility: 6 or more miles (10+ km)
Ceiling: 4300 feet AGL
Clouds: broken clouds at 4300 feet AGL
Weather: no significant weather observed at this time

METAR text: UKDD 211500Z 32007MPS 9999 BKN036 01/M07 Q1013 R26/090070 TEMPO 32011G16MPS
Conditions at: UKDD (DNIPROPETROVSK , UA) observed 1500 UTC 21 February 2019
Temperature: 1.0°C (34°F)
Dewpoint: -7.0°C (19°F) [RH = 55%]
Pressure (altimeter): 29.91 inches Hg (1013.0 mb)
Winds: from the NW (320 degrees) at 16 MPH (14 knots; 7.2 m/s)
Visibility: 6 or more miles (10+ km)
Ceiling: 3600 feet AGL
Clouds: broken clouds at 3600 feet AGL
Weather: no significant weather observed at this time

METAR text: UKDD 211430Z 32010MPS 9999 BKN034 01/M06 Q1012 R26/090070 TEMPO 32011G16MPS
Conditions at: UKDD (DNIPROPETROVSK , UA) observed 1430 UTC 21 February 2019
Temperature: 1.0°C (34°F)
Dewpoint: -6.0°C (21°F) [RH = 59%]
Pressure (altimeter): 29.88 inches Hg (1012.0 mb)
Winds: from the NW (320 degrees) at 22 MPH (19 knots; 9.8 m/s)
Visibility: 6 or more miles (10+ km)
Ceiling: 3400 feet AGL
Clouds: broken clouds at 3400 feet AGL
Weather: no significant weather observed at this time

METAR text: UKDD 211400Z 33010MPS CAVOK 01/M06 Q1012 R26/090070 TEMPO 32011G16MPS
Conditions at: UKDD (DNIPROPETROVSK , UA) observed 1400 UTC 21 February 2019
Temperature: 1.0°C (34°F)
Dewpoint: -6.0°C (21°F) [RH = 59%]
Pressure (altimeter): 29.88 inches Hg (1012.0 mb)
Winds: from the NNW (330 degrees) at 22 MPH (19 knots; 9.8 m/s)
Visibility: 6 or more miles (10+ km)
Ceiling: ceiling and visibility are OK
Clouds: unknown
Weather: no significant weather observed at this time

METAR text: UKDD 211330Z 31009MPS CAVOK 02/M07 Q1012 R26/090070 TEMPO 32011G16MPS
Conditions at: UKDD (DNIPROPETROVSK , UA) observed 1330 UTC 21 February 2019
Temperature: 2.0°C (36°F)
Dewpoint: -7.0°C (19°F) [RH = 51%]
Pressure (altimeter): 29.88 inches Hg (1012.0 mb)
Winds: from the NW (310 degrees) at 20 MPH (17 knots; 8.7 m/s)
Visibility: 6 or more miles (10+ km)
Ceiling: ceiling and visibility are OK
Clouds: unknown
Weather: no significant weather observed at this time

METAR text: UKDD 211300Z 31011MPS CAVOK 02/M07 Q1012 R26/090070 TEMPO 32011G16MPS
Conditions at: UKDD (DNIPROPETROVSK , UA) observed 1300 UTC 21 February 2019
Temperature: 2.0°C (36°F)
Dewpoint: -7.0°C (19°F) [RH = 51%]
Pressure (altimeter): 29.88 inches Hg (1012.0 mb)
Winds: from the NW (310 degrees) at 24 MPH (21 knots; 10.8 m/s)
Visibility: 6 or more miles (10+ km)
Ceiling: ceiling and visibility are OK
Clouds: unknown
Weather: no significant weather observed at this time

METAR text: UKDD 211230Z 31012MPS CAVOK 03/M06 Q1011 R26/090070 TEMPO 32011G16MPS
Conditions at: UKDD (DNIPROPETROVSK , UA) observed 1230 UTC 21 February 2019
Temperature: 3.0°C (37°F)
Dewpoint: -6.0°C (21°F) [RH = 52%]
Pressure (altimeter): 29.85 inches Hg (1011.0 mb)
Winds: from the NW (310 degrees) at 26 MPH (23 knots; 11.8 m/s)
Visibility: 6 or more miles (10+ km)
Ceiling: ceiling and visibility are OK
Clouds: unknown
Weather: no significant weather observed at this time

METAR text: UKDD 211200Z 32013MPS CAVOK 04/M06 Q1011 R26/090070 TEMPO 32011G16MPS
Conditions at: UKDD (DNIPROPETROVSK , UA) observed 1200 UTC 21 February 2019
Temperature: 4.0°C (39°F)
Dewpoint: -6.0°C (21°F) [RH = 48%]
Pressure (altimeter): 29.85 inches Hg (1011.0 mb)
Winds: from the NW (320 degrees) at 29 MPH (25 knots; 12.9 m/s)
Visibility: 6 or more miles (10+ km)
Ceiling: ceiling and visibility are OK
Clouds: unknown
Weather: no significant weather observed at this time

METAR text: UKDD 211130Z 32011MPS 280V350 CAVOK 04/M05 Q1011 R26/090070 TEMPO 32011G16MPS
Conditions at: UKDD (DNIPROPETROVSK , UA) observed 1130 UTC 21 February 2019
Temperature: 4.0°C (39°F)
Dewpoint: -5.0°C (23°F) [RH = 52%]
Pressure (altimeter): 29.85 inches Hg (1011.0 mb)
Winds: from the NW (320 degrees) at 24 MPH (21 knots; 10.8 m/s)
Visibility: 6 or more miles (10+ km)
Ceiling: ceiling and visibility are OK
Clouds: unknown
Weather: no significant weather observed at this time

METAR text: UKDD 211100Z 32011MPS 280V340 CAVOK 04/M04 Q1011 R26/090070 TEMPO 32011G16MPS
Conditions at: UKDD (DNIPROPETROVSK , UA) observed 1100 UTC 21 February 2019
Temperature: 4.0°C (39°F)
Dewpoint: -4.0°C (25°F) [RH = 56%]
Pressure (altimeter): 29.85 inches Hg (1011.0 mb)
Winds: from the NW (320 degrees) at 24 MPH (21 knots; 10.8 m/s)
Visibility: 6 or more miles (10+ km)
Ceiling: ceiling and visibility are OK
Clouds: unknown
Weather: no significant weather observed at this time

METAR text: UKDD 211030Z 32010MPS CAVOK 04/M04 Q1011 R26/190060 TEMPO 32011G16MPS
Conditions at: UKDD (DNIPROPETROVSK , UA) observed 1030 UTC 21 February 2019
Temperature: 4.0°C (39°F)
Dewpoint: -4.0°C (25°F) [RH = 56%]
Pressure (altimeter): 29.85 inches Hg (1011.0 mb)
Winds: from the NW (320 degrees) at 22 MPH (19 knots; 9.8 m/s)
Visibility: 6 or more miles (10+ km)
Ceiling: ceiling and visibility are OK
Clouds: unknown
Weather: no significant weather observed at this time

METAR text: UKDD 211000Z 31012MPS CAVOK 04/M04 Q1011 R26/190060 TEMPO 32011G16MPS
Conditions at: UKDD (DNIPROPETROVSK , UA) observed 1000 UTC 21 February 2019
Temperature: 4.0°C (39°F)
Dewpoint: -4.0°C (25°F) [RH = 56%]
Pressure (altimeter): 29.85 inches Hg (1011.0 mb)
Winds: from the NW (310 degrees) at 26 MPH (23 knots; 11.8 m/s)
Visibility: 6 or more miles (10+ km)
Ceiling: ceiling and visibility are OK
Clouds: unknown
Weather: no significant weather observed at this time

METAR text: UKDD 210930Z 31012MPS 260V340 CAVOK 05/M04 Q1011 R26/190060 TEMPO 32011G16MPS
Conditions at: UKDD (DNIPROPETROVSK , UA) observed 0930 UTC 21 February 2019
Temperature: 5.0°C (41°F)
Dewpoint: -4.0°C (25°F) [RH = 52%]
Pressure (altimeter): 29.85 inches Hg (1011.0 mb)
Winds: from the NW (310 degrees) at 26 MPH (23 knots; 11.8 m/s)
Visibility: 6 or more miles (10+ km)
Ceiling: ceiling and visibility are OK
Clouds: unknown
Weather: no significant weather observed at this time

METAR text: UKDD 210900Z 31011MPS CAVOK 05/M02 Q1010 R26/190060 TEMPO 32011G16MPS
Conditions at: UKDD (DNIPROPETROVSK , UA) observed 0900 UTC 21 February 2019
Temperature: 5.0°C (41°F)
Dewpoint: -2.0°C (28°F) [RH = 60%]
Pressure (altimeter): 29.82 inches Hg (1010.0 mb)
Winds: from the NW (310 degrees) at 24 MPH (21 knots; 10.8 m/s)
Visibility: 6 or more miles (10+ km)
Ceiling: ceiling and visibility are OK
Clouds: unknown
Weather: no significant weather observed at this time

METAR text: UKDD 210830Z 29008MPS CAVOK 04/M01 Q1010 R26/190060 BECMG 31007G12MPS
Conditions at: UKDD (DNIPROPETROVSK , UA) observed 0830 UTC 21 February 2019
Temperature: 4.0°C (39°F)
Dewpoint: -1.0°C (30°F) [RH = 70%]
Pressure (altimeter): 29.82 inches Hg (1010.0 mb)
Winds: from the WNW (290 degrees) at 18 MPH (16 knots; 8.2 m/s)
Visibility: 6 or more miles (10+ km)
Ceiling: ceiling and visibility are OK
Clouds: unknown
Weather: no significant weather observed at this time

METAR text: UKDD 210800Z 28008MPS 260V340 CAVOK 04/00 Q1010 R26/190060 BECMG 31007G12MPS
Conditions at: UKDD (DNIPROPETROVSK , UA) observed 0800 UTC 21 February 2019
Temperature: 4.0°C (39°F)
Dewpoint: 0.0°C (32°F) [RH = 75%]
Pressure (altimeter): 29.82 inches Hg (1010.0 mb)
Winds: from the W (280 degrees) at 18 MPH (16 knots; 8.2 m/s)
Visibility: 6 or more miles (10+ km)
Ceiling: ceiling and visibility are OK
Clouds: unknown
Weather: no significant weather observed at this time

METAR text: UKDD 210730Z 28007MPS CAVOK 03/00 Q1011 R26/190060 NOSIG
Conditions at: UKDD (DNIPROPETROVSK , UA) observed 0730 UTC 21 February 2019
Temperature: 3.0°C (37°F)
Dewpoint: 0.0°C (32°F) [RH = 81%]
Pressure (altimeter): 29.85 inches Hg (1011.0 mb)
Winds: from the W (280 degrees) at 16 MPH (14 knots; 7.2 m/s)
Visibility: 6 or more miles (10+ km)
Ceiling: ceiling and visibility are OK
Clouds: unknown
Weather: no significant weather observed at this time

METAR text: UKDD 210700Z 28006MPS CAVOK 02/M00 Q1011 R26/190060 NOSIG
Conditions at: UKDD (DNIPROPETROVSK , UA) observed 0700 UTC 21 February 2019
Temperature: 2.0°C (36°F)
Dewpoint: 0.0°C (32°F) [RH = 87%]
Pressure (altimeter): 29.85 inches Hg (1011.0 mb)
Winds: from the W (280 degrees) at 14 MPH (12 knots; 6.2 m/s)
Visibility: 6 or more miles (10+ km)
Ceiling: ceiling and visibility are OK
Clouds: unknown
Weather: no significant weather observed at this time

METAR text: UKDD 210630Z 27006MPS CAVOK 02/M01 Q1011 R26/190060 NOSIG
Conditions at: UKDD (DNIPROPETROVSK , UA) observed 0630 UTC 21 February 2019
Temperature: 2.0°C (36°F)
Dewpoint: -1.0°C (30°F) [RH = 80%]
Pressure (altimeter): 29.85 inches Hg (1011.0 mb)
Winds: from the W (270 degrees) at 14 MPH (12 knots; 6.2 m/s)
Visibility: 6 or more miles (10+ km)
Ceiling: ceiling and visibility are OK
Clouds: unknown
Weather: no significant weather observed at this time

METAR text: UKDD 210600Z 26005MPS 8000 NSC 01/M01 Q1011 R26/190060 NOSIG
Conditions at: UKDD (DNIPROPETROVSK , UA) observed 0600 UTC 21 February 2019
Temperature: 1.0°C (34°F)
Dewpoint: -1.0°C (30°F) [RH = 86%]
Pressure (altimeter): 29.85 inches Hg (1011.0 mb)
Winds: from the W (260 degrees) at 12 MPH (10 knots; 5.1 m/s)
Visibility: 5 miles ( 8 km)
Ceiling: at least 12,000 feet AGL
Clouds: sky clear below 12,000 feet AGL
Weather: no significant weather observed at this time

METAR text: UKDD 210530Z 26005MPS 8000 NSC 01/M01 Q1011 R26/190060 NOSIG
Conditions at: UKDD (DNIPROPETROVSK , UA) observed 0530 UTC 21 February 2019
Temperature: 1.0°C (34°F)
Dewpoint: -1.0°C (30°F) [RH = 86%]
Pressure (altimeter): 29.85 inches Hg (1011.0 mb)
Winds: from the W (260 degrees) at 12 MPH (10 knots; 5.1 m/s)
Visibility: 5 miles ( 8 km)
Ceiling: at least 12,000 feet AGL
Clouds: sky clear below 12,000 feet AGL
Weather: no significant weather observed at this time

METAR text: UKDD 210500Z 26005MPS 7000 NSC 01/M01 Q1011 R26/190060 NOSIG
Conditions at: UKDD (DNIPROPETROVSK , UA) observed 0500 UTC 21 February 2019
Temperature: 1.0°C (34°F)
Dewpoint: -1.0°C (30°F) [RH = 86%]
Pressure (altimeter): 29.85 inches Hg (1011.0 mb)
Winds: from the W (260 degrees) at 12 MPH (10 knots; 5.1 m/s)
Visibility: 4 miles ( 7 km)
Ceiling: at least 12,000 feet AGL
Clouds: sky clear below 12,000 feet AGL
Weather: no significant weather observed at this time

METAR text: UKDD 210430Z 27006MPS 7000 NSC 00/M01 Q1011 R26/190060 NOSIG
Conditions at: UKDD (DNIPROPETROVSK , UA) observed 0430 UTC 21 February 2019
Temperature: 0.0°C (32°F)
Dewpoint: -1.0°C (30°F) [RH = 93%]
Pressure (altimeter): 29.85 inches Hg (1011.0 mb)
Winds: from the W (270 degrees) at 14 MPH (12 knots; 6.2 m/s)
Visibility: 4 miles ( 7 km)
Ceiling: at least 12,000 feet AGL
Clouds: sky clear below 12,000 feet AGL
Weather: no significant weather observed at this time

METAR text: UKDD 210400Z 27006MPS 6000 NSC 00/M01 Q1011 R26/290058 TEMPO 0500 DZ FG VV002
Conditions at: UKDD (DNIPROPETROVSK , UA) observed 0400 UTC 21 February 2019
Temperature: 0.0°C (32°F)
Dewpoint: -1.0°C (30°F) [RH = 93%]
Pressure (altimeter): 29.85 inches Hg (1011.0 mb)
Winds: from the W (270 degrees) at 14 MPH (12 knots; 6.2 m/s)
Visibility: 4 miles ( 6 km)
Ceiling: at least 12,000 feet AGL
Clouds: sky clear below 12,000 feet AGL
Weather: no significant weather observed at this time

METAR text: UKDD 210330Z 27005MPS 4500 BR NSC M00/M01 Q1011 R26/290058 TEMPO 0500 DZ FG VV002
Conditions at: UKDD (DNIPROPETROVSK , UA) observed 0330 UTC 21 February 2019
Temperature: 0.0°C (32°F)
Dewpoint: -1.0°C (30°F) [RH = 93%]
Pressure (altimeter): 29.85 inches Hg (1011.0 mb)
Winds: from the W (270 degrees) at 12 MPH (10 knots; 5.1 m/s)
Visibility: 2.80 miles (4.51 km)
Ceiling: at least 12,000 feet AGL
Clouds: sky clear below 12,000 feet AGL
Weather: BR  (mist)

METAR text: UKDD 210300Z 26005MPS 3300 BR NSC M00/M02 Q1011 R26/290058 TEMPO 0500 DZ FG VV002
Conditions at: UKDD (DNIPROPETROVSK , UA) observed 0300 UTC 21 February 2019
Temperature: 0.0°C (32°F)
Dewpoint: -2.0°C (28°F) [RH = 86%]
Pressure (altimeter): 29.85 inches Hg (1011.0 mb)
Winds: from the W (260 degrees) at 12 MPH (10 knots; 5.1 m/s)
Visibility: 2.05 miles (3.30 km)
Ceiling: at least 12,000 feet AGL
Clouds: sky clear below 12,000 feet AGL
Weather: BR  (mist)

METAR text: UKDD 210230Z 27005MPS 3000 BR NSC M00/M01 Q1011 R26/290058 TEMPO 0500 DZ FG VV002
Conditions at: UKDD (DNIPROPETROVSK , UA) observed 0230 UTC 21 February 2019
Temperature: 0.0°C (32°F)
Dewpoint: -1.0°C (30°F) [RH = 93%]
Pressure (altimeter): 29.85 inches Hg (1011.0 mb)
Winds: from the W (270 degrees) at 12 MPH (10 knots; 5.1 m/s)
Visibility: 1.86 miles (2.99 km)
Ceiling: at least 12,000 feet AGL
Clouds: sky clear below 12,000 feet AGL
Weather: BR  (mist)

METAR text: UKDD 210200Z 26005MPS 2400 BR NSC 00/M00 Q1011 R26/290058 TEMPO 0500 DZ FG VV002
Conditions at: UKDD (DNIPROPETROVSK , UA) observed 0200 UTC 21 February 2019
Temperature: 0.0°C (32°F)
Dewpoint: 0.0°C (32°F) [RH = 100%]
Pressure (altimeter): 29.85 inches Hg (1011.0 mb)
Winds: from the W (260 degrees) at 12 MPH (10 knots; 5.1 m/s)
Visibility: 1.49 miles (2.40 km)
Ceiling: at least 12,000 feet AGL
Clouds: sky clear below 12,000 feet AGL
Weather: BR  (mist)

METAR text: UKDD 210130Z 26005MPS 2000 BR NSC 01/M00 Q1011 R26/290058 TEMPO 0500 DZ FG VV002
Conditions at: UKDD (DNIPROPETROVSK , UA) observed 0130 UTC 21 February 2019
Temperature: 1.0°C (34°F)
Dewpoint: 0.0°C (32°F) [RH = 93%]
Pressure (altimeter): 29.85 inches Hg (1011.0 mb)
Winds: from the W (260 degrees) at 12 MPH (10 knots; 5.1 m/s)
Visibility: 1.24 miles (2.00 km)
Ceiling: at least 12,000 feet AGL
Clouds: sky clear below 12,000 feet AGL
Weather: BR  (mist)

METAR text: UKDD 210100Z 26005MPS 2000 1400W R26/P2000N BR NSC 01/00 Q1011 R26/290058 TEMPO 0500 DZ FG VV002
Conditions at: UKDD (DNIPROPETROVSK , UA) observed 0100 UTC 21 February 2019
Temperature: 1.0°C (34°F)
Dewpoint: 0.0°C (32°F) [RH = 93%]
Pressure (altimeter): 29.85 inches Hg (1011.0 mb)
Winds: from the W (260 degrees) at 12 MPH (10 knots; 5.1 m/s)
Visibility: 1.24 miles (2.00 km)
Ceiling: at least 12,000 feet AGL
Clouds: sky clear below 12,000 feet AGL
Weather: BR  (mist)

METAR text: UKDD 210030Z 26005MPS 1900 BR NSC 01/01 Q1011 R26/290058 TEMPO 0500 DZ FG VV002
Conditions at: UKDD (DNIPROPETROVSK , UA) observed 0030 UTC 21 February 2019
Temperature: 1.0°C (34°F)
Dewpoint: 1.0°C (34°F) [RH = 100%]
Pressure (altimeter): 29.85 inches Hg (1011.0 mb)
Winds: from the W (260 degrees) at 12 MPH (10 knots; 5.1 m/s)
Visibility: 1.18 miles (1.90 km)
Ceiling: at least 12,000 feet AGL
Clouds: sky clear below 12,000 feet AGL
Weather: BR  (mist)

METAR text: UKDD 210000Z 26005MPS 1800 1300W R26/P2000N BR NSC 01/01 Q1012 R26/290058 TEMPO 0500 DZ FG VV002
Conditions at: UKDD (DNIPROPETROVSK , UA) observed 0000 UTC 21 February 2019
Temperature: 1.0°C (34°F)
Dewpoint: 1.0°C (34°F) [RH = 100%]
Pressure (altimeter): 29.88 inches Hg (1012.0 mb)
Winds: from the W (260 degrees) at 12 MPH (10 knots; 5.1 m/s)
Visibility: 1.12 miles (1.80 km)
Ceiling: at least 12,000 feet AGL
Clouds: sky clear below 12,000 feet AGL
Weather: BR  (mist)

METAR text: UKDD 202330Z 27004MPS 1600 1000W R26/P2000N BR NSC 01/01 Q1012 R26/290058 TEMPO 0500 DZ FG VV002
Conditions at: UKDD (DNIPROPETROVSK , UA) observed 2330 UTC 20 February 2019
Temperature: 1.0°C (34°F)
Dewpoint: 1.0°C (34°F) [RH = 100%]
Pressure (altimeter): 29.88 inches Hg (1012.0 mb)
Winds: from the W (270 degrees) at 9 MPH (8 knots; 4.1 m/s)
Visibility: 0.99 miles (1.59 km)
Ceiling: at least 12,000 feet AGL
Clouds: sky clear below 12,000 feet AGL
Weather: BR  (mist)

METAR text: UKDD 202300Z 26004MPS 1500 1300W R26/P2000N BR NSC 01/00 Q1012 R26/290058 TEMPO 0500 DZ FG VV002
Conditions at: UKDD (DNIPROPETROVSK , UA) observed 2300 UTC 20 February 2019
Temperature: 1.0°C (34°F)
Dewpoint: 0.0°C (32°F) [RH = 93%]
Pressure (altimeter): 29.88 inches Hg (1012.0 mb)
Winds: from the W (260 degrees) at 9 MPH (8 knots; 4.1 m/s)
Visibility: 0.93 miles (1.50 km)
Ceiling: at least 12,000 feet AGL
Clouds: sky clear below 12,000 feet AGL
Weather: BR  (mist)

METAR text: UKDD 202230Z 26003MPS 1600 1200W R26/P2000N BR NSC 01/01 Q1012 R26/290058 TEMPO 1400 BR BKN003
Conditions at: UKDD (DNIPROPETROVSK , UA) observed 2230 UTC 20 February 2019
Temperature: 1.0°C (34°F)
Dewpoint: 1.0°C (34°F) [RH = 100%]
Pressure (altimeter): 29.88 inches Hg (1012.0 mb)
Winds: from the W (260 degrees) at 7 MPH (6 knots; 3.1 m/s)
Visibility: 0.99 miles (1.59 km)
Ceiling: at least 12,000 feet AGL
Clouds: sky clear below 12,000 feet AGL
Weather: BR  (mist)

METAR text: UKDD 202200Z 26002MPS 230V300 1700 1400W R26/P2000N BR BKN013 BKN033 01/01 Q1012 R26/290058 TEMPO 1400 RA BR BKN003
Conditions at: UKDD (DNIPROPETROVSK , UA) observed 2200 UTC 20 February 2019
Temperature: 1.0°C (34°F)
Dewpoint: 1.0°C (34°F) [RH = 100%]
Pressure (altimeter): 29.88 inches Hg (1012.0 mb)
Winds: from the W (260 degrees) at 5 MPH (4 knots; 2.1 m/s)
Visibility: 1.06 miles (1.71 km)
Ceiling: 1300 feet AGL
Clouds: broken clouds at 1300 feet AGL
broken clouds at 3300 feet AGL
Weather: BR  (mist)

METAR text: UKDD 202130Z 27003MPS 2100 BR BKN005 BKN024 02/01 Q1012 R26/290058 TEMPO 1400 RA BR BKN003
Conditions at: UKDD (DNIPROPETROVSK , UA) observed 2130 UTC 20 February 2019
Temperature: 2.0°C (36°F)
Dewpoint: 1.0°C (34°F) [RH = 93%]
Pressure (altimeter): 29.88 inches Hg (1012.0 mb)
Winds: from the W (270 degrees) at 7 MPH (6 knots; 3.1 m/s)
Visibility: 1.30 miles (2.09 km)
Ceiling: 500 feet AGL
Clouds: broken clouds at 500 feet AGL
broken clouds at 2400 feet AGL
Weather: BR  (mist)

METAR text: UKDD 202100Z 27004MPS 2400 BR BKN005 02/01 Q1012 R26/290058 TEMPO 1400 RA BR BKN003
Conditions at: UKDD (DNIPROPETROVSK , UA) observed 2100 UTC 20 February 2019
Temperature: 2.0°C (36°F)
Dewpoint: 1.0°C (34°F) [RH = 93%]
Pressure (altimeter): 29.88 inches Hg (1012.0 mb)
Winds: from the W (270 degrees) at 9 MPH (8 knots; 4.1 m/s)
Visibility: 1.49 miles (2.40 km)
Ceiling: 500 feet AGL
Clouds: broken clouds at 500 feet AGL
Weather: BR  (mist)

METAR text: UKDD 202030Z 27004MPS 2700 -RA BR OVC005 02/01 Q1013 R26/290058 TEMPO 1400 RA BR BKN003
Conditions at: UKDD (DNIPROPETROVSK , UA) observed 2030 UTC 20 February 2019
Temperature: 2.0°C (36°F)
Dewpoint: 1.0°C (34°F) [RH = 93%]
Pressure (altimeter): 29.91 inches Hg (1013.0 mb)
Winds: from the W (270 degrees) at 9 MPH (8 knots; 4.1 m/s)
Visibility: 1.68 miles (2.70 km)
Ceiling: 500 feet AGL
Clouds: overcast cloud deck at 500 feet AGL
Weather: -RA BR  (light rain, mist)

METAR text: UKDD 202000Z 28004MPS 270V070 3100 -RA BR OVC004 02/01 Q1013 R26/290058 TEMPO 1400 RA BR BKN003
Conditions at: UKDD (DNIPROPETROVSK , UA) observed 2000 UTC 20 February 2019
Temperature: 2.0°C (36°F)
Dewpoint: 1.0°C (34°F) [RH = 93%]
Pressure (altimeter): 29.91 inches Hg (1013.0 mb)
Winds: from the W (280 degrees) at 9 MPH (8 knots; 4.1 m/s)
Visibility: 1.93 miles (3.11 km)
Ceiling: 400 feet AGL
Clouds: overcast cloud deck at 400 feet AGL
Weather: -RA BR  (light rain, mist)

METAR text: UKDD 201930Z 29005MPS 4100 -RA BR OVC006 02/01 Q1013 R26/290058 TEMPO 1400 RA BR BKN003
Conditions at: UKDD (DNIPROPETROVSK , UA) observed 1930 UTC 20 February 2019
Temperature: 2.0°C (36°F)
Dewpoint: 1.0°C (34°F) [RH = 93%]
Pressure (altimeter): 29.91 inches Hg (1013.0 mb)
Winds: from the WNW (290 degrees) at 12 MPH (10 knots; 5.1 m/s)
Visibility: 2.55 miles (4.10 km)
Ceiling: 600 feet AGL
Clouds: overcast cloud deck at 600 feet AGL
Weather: -RA BR  (light rain, mist)

METAR text: UKDD 201900Z 28005MPS 5000 BR OVC006 02/01 Q1013 R26/290058 TEMPO 1400 RA BR BKN003
Conditions at: UKDD (DNIPROPETROVSK , UA) observed 1900 UTC 20 February 2019
Temperature: 2.0°C (36°F)
Dewpoint: 1.0°C (34°F) [RH = 93%]
Pressure (altimeter): 29.91 inches Hg (1013.0 mb)
Winds: from the W (280 degrees) at 12 MPH (10 knots; 5.1 m/s)
Visibility: 3 miles ( 5 km)
Ceiling: 600 feet AGL
Clouds: overcast cloud deck at 600 feet AGL
Weather: BR  (mist)

METAR text: UKDD 201830Z 27005MPS 4700 -DZ BR OVC006 03/02 Q1013 R26/290058 TEMPO 1400 RA BR BKN003
Conditions at: UKDD (DNIPROPETROVSK , UA) observed 1830 UTC 20 February 2019
Temperature: 3.0°C (37°F)
Dewpoint: 2.0°C (36°F) [RH = 93%]
Pressure (altimeter): 29.91 inches Hg (1013.0 mb)
Winds: from the W (270 degrees) at 12 MPH (10 knots; 5.1 m/s)
Visibility: 2.92 miles (4.70 km)
Ceiling: 600 feet AGL
Clouds: overcast cloud deck at 600 feet AGL
Weather: -DZ BR  (light drizzle, mist)

METAR text: UKDD 201800Z 28006MPS 260V320 2700 -DZ BR OVC005 03/02 Q1013 R26/290058 TEMPO 1400 RA BKN003
Conditions at: UKDD (DNIPROPETROVSK , UA) observed 1800 UTC 20 February 2019
Temperature: 3.0°C (37°F)
Dewpoint: 2.0°C (36°F) [RH = 93%]
Pressure (altimeter): 29.91 inches Hg (1013.0 mb)
Winds: from the W (280 degrees) at 14 MPH (12 knots; 6.2 m/s)
Visibility: 1.68 miles (2.70 km)
Ceiling: 500 feet AGL
Clouds: overcast cloud deck at 500 feet AGL
Weather: -DZ BR  (light drizzle, mist)

METAR text: UKDD 201730Z 26004MPS 9999 OVC011 04/01 Q1013 R26/090070 NOSIG
Conditions at: UKDD (DNIPROPETROVSK , UA) observed 1730 UTC 20 February 2019
Temperature: 4.0°C (39°F)
Dewpoint: 1.0°C (34°F) [RH = 81%]
Pressure (altimeter): 29.91 inches Hg (1013.0 mb)
Winds: from the W (260 degrees) at 9 MPH (8 knots; 4.1 m/s)
Visibility: 6 or more miles (10+ km)
Ceiling: 1100 feet AGL
Clouds: overcast cloud deck at 1100 feet AGL
Weather: no significant weather observed at this time

METAR text: UKDD 201700Z 25003MPS 210V280 9999 OVC013 04/01 Q1013 R26/090070 NOSIG
Conditions at: UKDD (DNIPROPETROVSK , UA) observed 1700 UTC 20 February 2019
Temperature: 4.0°C (39°F)
Dewpoint: 1.0°C (34°F) [RH = 81%]
Pressure (altimeter): 29.91 inches Hg (1013.0 mb)
Winds: from the WSW (250 degrees) at 7 MPH (6 knots; 3.1 m/s)
Visibility: 6 or more miles (10+ km)
Ceiling: 1300 feet AGL
Clouds: overcast cloud deck at 1300 feet AGL
Weather: no significant weather observed at this time

METAR text: UKDD 201630Z 24004MPS 220V280 9999 OVC014 04/00 Q1013 R26/090070 NOSIG
Conditions at: UKDD (DNIPROPETROVSK , UA) observed 1630 UTC 20 February 2019
Temperature: 4.0°C (39°F)
Dewpoint: 0.0°C (32°F) [RH = 75%]
Pressure (altimeter): 29.91 inches Hg (1013.0 mb)
Winds: from the WSW (240 degrees) at 9 MPH (8 knots; 4.1 m/s)
Visibility: 6 or more miles (10+ km)
Ceiling: 1400 feet AGL
Clouds: overcast cloud deck at 1400 feet AGL
Weather: no significant weather observed at this time

METAR text: UKDD 201600Z 24003MPS 190V270 9999 OVC016 04/00 Q1013 R26/090070 NOSIG
Conditions at: UKDD (DNIPROPETROVSK , UA) observed 1600 UTC 20 February 2019
Temperature: 4.0°C (39°F)
Dewpoint: 0.0°C (32°F) [RH = 75%]
Pressure (altimeter): 29.91 inches Hg (1013.0 mb)
Winds: from the WSW (240 degrees) at 7 MPH (6 knots; 3.1 m/s)
Visibility: 6 or more miles (10+ km)
Ceiling: 1600 feet AGL
Clouds: overcast cloud deck at 1600 feet AGL
Weather: no significant weather observed at this time

METAR text: UKDD 201530Z 23003MPS 200V270 9999 OVC021 04/00 Q1013 R26/090070 NOSIG
Conditions at: UKDD (DNIPROPETROVSK , UA) observed 1530 UTC 20 February 2019
Temperature: 4.0°C (39°F)
Dewpoint: 0.0°C (32°F) [RH = 75%]
Pressure (altimeter): 29.91 inches Hg (1013.0 mb)
Winds: from the SW (230 degrees) at 7 MPH (6 knots; 3.1 m/s)
Visibility: 6 or more miles (10+ km)
Ceiling: 2100 feet AGL
Clouds: overcast cloud deck at 2100 feet AGL
Weather: no significant weather observed at this time

METAR text: UKDD 201500Z 23004MPS 190V260 9999 OVC024 05/00 Q1013 R26/090070 NOSIG
Conditions at: UKDD (DNIPROPETROVSK , UA) observed 1500 UTC 20 February 2019
Temperature: 5.0°C (41°F)
Dewpoint: 0.0°C (32°F) [RH = 70%]
Pressure (altimeter): 29.91 inches Hg (1013.0 mb)
Winds: from the SW (230 degrees) at 9 MPH (8 knots; 4.1 m/s)
Visibility: 6 or more miles (10+ km)
Ceiling: 2400 feet AGL
Clouds: overcast cloud deck at 2400 feet AGL
Weather: no significant weather observed at this time

METAR text: UKDD 201430Z 23004MPS 200V270 9999 OVC022 05/00 Q1013 R26/090070 NOSIG
Conditions at: UKDD (DNIPROPETROVSK , UA) observed 1430 UTC 20 February 2019
Temperature: 5.0°C (41°F)
Dewpoint: 0.0°C (32°F) [RH = 70%]
Pressure (altimeter): 29.91 inches Hg (1013.0 mb)
Winds: from the SW (230 degrees) at 9 MPH (8 knots; 4.1 m/s)
Visibility: 6 or more miles (10+ km)
Ceiling: 2200 feet AGL
Clouds: overcast cloud deck at 2200 feet AGL
Weather: no significant weather observed at this time

METAR text: UKDD 201400Z 22004MPS 180V260 9999 OVC024 05/00 Q1013 R26/090070 NOSIG
Conditions at: UKDD (DNIPROPETROVSK , UA) observed 1400 UTC 20 February 2019
Temperature: 5.0°C (41°F)
Dewpoint: 0.0°C (32°F) [RH = 70%]
Pressure (altimeter): 29.91 inches Hg (1013.0 mb)
Winds: from the SW (220 degrees) at 9 MPH (8 knots; 4.1 m/s)
Visibility: 6 or more miles (10+ km)
Ceiling: 2400 feet AGL
Clouds: overcast cloud deck at 2400 feet AGL
Weather: no significant weather observed at this time

Forecast for: UKDD (DNIPROPETROVSK , UA)
Text: TAF UKDD 212301Z 2200/2224 32005MPS 9999 BKN010 TXM03/2200Z TNM08/2224Z
Forecast period: 0000 to 0600 UTC 22 February 2019
Forecast type: FROM: standard forecast or significant change
Winds: from the NW (320 degrees) at 12 MPH (10 knots; 5.1 m/s)
Visibility: 6 or more miles 10+ km)
Ceiling: 1000 feet AGL
Clouds: broken clouds at 1000 feet AGL
Weather: no significant weather forecast for this period
Text: TEMPO 2200/2206 2100 -SHSN BR BKN004 BKN015CB
Forecast period: 0000 to 0600 UTC 22 February 2019
Forecast type: TEMPORARY: The following changes expected for less than half the time period
Visibility: 1.30 miles (2.09 km)
Ceiling: 400 feet AGL
Clouds: broken clouds at 400 feet AGL
broken clouds at 1500 feet AGL
Weather: -SHSN BR  (light snow showers, mist)
Text: BECMG 2206/2208 35006G11MPS
Forecast period: 0600 UTC 22 February 2019 to 0000 UTC 23 February 2019
Forecast type: BECOMING: Conditions expected to become as follows by 0800 UTC 22 February 2019
Winds: from the N (350 degrees) at 14 MPH (12 knots; 6.2 m/s)
gusting to 24 MPH (21 knots; 10.8 m/s)
Visibility: 6 or more miles 10+ km)
Ceiling: 1000 feet AGL
Clouds: broken clouds at 1000 feet AGL
Weather: no significant weather forecast for this period
Text: TEMPO 2208/2220 36010G16MPS 1100 SHSN BKN005 BKN013CB
Forecast period: 0800 to 2000 UTC 22 February 2019
Forecast type: TEMPORARY: The following changes expected for less than half the time period
Winds: from the N (360 degrees) at 22 MPH (19 knots; 9.8 m/s)
gusting to 36 MPH (31 knots; 15.9 m/s)
Visibility: 0.68 miles (1.09 km)
Ceiling: 500 feet AGL
Clouds: broken clouds at 500 feet AGL
broken clouds at 1300 feet AGL
Weather: SHSN  (snow showers)